createdAt,value
2018-12-08T00:00:10.328Z,99013.20
2018-12-08T00:01:15.984Z,99008.76
2018-12-08T00:02:21.618Z,99019.70
2018-12-08T00:03:27.265Z,99013.47
2018-12-08T00:04:32.921Z,99028.95
2018-12-08T00:05:38.509Z,99022.43
2018-12-08T00:06:44.119Z,99033.95
2018-12-08T00:07:49.862Z,99030.14
2018-12-08T00:08:55.409Z,99041.98
2018-12-08T00:10:01.093Z,99028.41
2018-12-08T00:11:06.733Z,99037.03
2018-12-08T00:12:12.345Z,99050.95
2018-12-08T00:13:17.940Z,99052.08
2018-12-08T00:14:23.551Z,99052.47
2018-12-08T00:15:29.161Z,99054.98
2018-12-08T00:16:34.764Z,99044.80
2018-12-08T00:17:40.367Z,99056.85
2018-12-08T00:18:45.990Z,99050.98
2018-12-08T00:19:51.602Z,99051.34
2018-12-08T00:20:57.238Z,99059.50
2018-12-08T00:22:02.813Z,99062.48
2018-12-08T00:23:08.496Z,99071.95
2018-12-08T00:24:14.136Z,99066.08
2018-12-08T00:25:19.711Z,99058.50
2018-12-08T00:26:25.313Z,99079.50
2018-12-08T00:27:30.947Z,99077.73
2018-12-08T00:28:36.562Z,99079.77
2018-12-08T00:29:42.168Z,99079.41
2018-12-08T00:30:58.714Z,99080.87
2018-12-08T00:32:05.222Z,99082.34
2018-12-08T00:33:10.828Z,99085.71
2018-12-08T00:34:16.455Z,99091.48
2018-12-08T00:35:22.128Z,99096.54
2018-12-08T00:36:27.744Z,99092.50
2018-12-08T00:37:33.340Z,99086.77
2018-12-08T00:38:38.943Z,99105.99
2018-12-08T00:39:44.589Z,99095.14
2018-12-08T00:40:50.262Z,99109.81
2018-12-08T00:41:55.817Z,99109.81
2018-12-08T00:43:01.416Z,99116.34
2018-12-08T00:44:07.017Z,99116.44
2018-12-08T00:45:12.588Z,99120.78
2018-12-08T00:46:18.201Z,99129.98
2018-12-08T00:47:23.840Z,99127.05
2018-12-08T00:48:29.482Z,99117.45
2018-12-08T00:49:35.137Z,99124.14
2018-12-08T00:50:40.755Z,99133.84
2018-12-08T00:51:46.340Z,99123.23
2018-12-08T00:52:51.766Z,99126.63
2018-12-08T00:53:57.136Z,99120.03
2018-12-08T00:55:02.768Z,99120.48
2018-12-08T00:56:08.369Z,99132.30
2018-12-08T00:57:13.996Z,99133.19
2018-12-08T00:58:19.573Z,99126.88
2018-12-08T00:59:25.339Z,99136.34
2018-12-08T01:00:30.806Z,99144.28
2018-12-08T01:01:36.421Z,99135.92
2018-12-08T01:02:42.617Z,99155.02
2018-12-08T01:03:49.449Z,99155.34
2018-12-08T01:04:55.061Z,99150.35
2018-12-08T01:06:00.671Z,99158.48
2018-12-08T01:07:06.289Z,99161.80
2018-12-08T01:08:11.878Z,99159.84
2018-12-08T01:09:17.155Z,99167.59
2018-12-08T01:10:23.704Z,99169.53
2018-12-08T01:11:29.313Z,99167.77
2018-12-08T01:12:34.640Z,99169.48
2018-12-08T01:13:40.240Z,99169.08
2018-12-08T01:14:45.489Z,99167.75
2018-12-08T01:15:51.110Z,99163.41
2018-12-08T01:16:56.724Z,99168.38
2018-12-08T01:18:02.338Z,99166.23
2018-12-08T01:19:07.923Z,99170.76
2018-12-08T01:20:13.163Z,99169.97
2018-12-08T01:21:18.773Z,99168.81
2018-12-08T01:22:24.343Z,99164.50
2018-12-08T01:23:29.962Z,99163.41
2018-12-08T01:24:35.579Z,99171.78
2018-12-08T01:25:41.161Z,99165.19
2018-12-08T01:26:46.777Z,99169.86
2018-12-08T01:27:52.415Z,99163.08
2018-12-08T01:28:57.994Z,99166.12
2018-12-08T01:30:03.258Z,99171.86
2018-12-08T01:31:08.860Z,99173.74
2018-12-08T01:32:14.470Z,99172.77
2018-12-08T01:33:20.075Z,99173.72
2018-12-08T01:34:25.675Z,99184.23
2018-12-08T01:35:31.302Z,99187.19
2018-12-08T01:36:36.920Z,99179.78
2018-12-08T01:37:42.538Z,99185.22
2018-12-08T01:38:48.143Z,99185.71
2018-12-08T01:39:53.792Z,99189.41
2018-12-08T01:40:59.401Z,99185.34
2018-12-08T01:42:04.691Z,99187.69
2018-12-08T01:43:10.278Z,99189.02
2018-12-08T01:44:16.187Z,99179.58
2018-12-08T01:45:21.823Z,99177.53
2018-12-08T01:46:27.391Z,99175.93
2018-12-08T01:47:33.024Z,99177.69
2018-12-08T01:48:38.363Z,99178.71
2018-12-08T01:49:43.975Z,99173.67
2018-12-08T01:50:49.200Z,99179.23
2018-12-08T01:51:54.799Z,99178.23
2018-12-08T01:53:00.444Z,99181.12
2018-12-08T01:54:05.706Z,99179.81
2018-12-08T01:55:11.304Z,99174.60
2018-12-08T01:56:16.892Z,99176.88
2018-12-08T01:57:22.533Z,99178.03
2018-12-08T01:58:28.162Z,99172.69
2018-12-08T01:59:33.800Z,99176.63
2018-12-08T02:00:39.416Z,99171.20
2018-12-08T02:01:43.994Z,99169.89
2018-12-08T02:02:48.575Z,99176.63
2018-12-08T02:03:53.172Z,99171.59
2018-12-08T02:04:57.804Z,99175.45
2018-12-08T02:06:02.384Z,99176.88
2018-12-08T02:07:06.968Z,99169.50
2018-12-08T02:08:11.545Z,99172.17
2018-12-08T02:09:16.158Z,99163.04
2018-12-08T02:10:21.784Z,99169.86
2018-12-08T02:11:27.376Z,99166.27
2018-12-08T02:12:32.975Z,99165.48
2018-12-08T02:13:38.585Z,99164.55
2018-12-08T02:14:44.180Z,99160.61
2018-12-08T02:15:49.804Z,99166.16
2018-12-08T02:16:55.427Z,99155.86
2018-12-08T02:18:01.059Z,99155.08
2018-12-08T02:19:06.673Z,99157.52
2018-12-08T02:20:11.925Z,99160.09
2018-12-08T02:21:17.502Z,99163.78
2018-12-08T02:22:23.082Z,99166.09
2018-12-08T02:23:28.706Z,99170.40
2018-12-08T02:24:34.419Z,99170.71
2018-12-08T02:25:40.016Z,99161.64
2018-12-08T02:26:46.226Z,99161.16
2018-12-08T02:27:52.332Z,99166.80
2018-12-08T02:28:57.936Z,99166.97
2018-12-08T02:30:03.173Z,99167.17
2018-12-08T02:31:09.853Z,99165.38
2018-12-08T02:32:15.113Z,99172.98
2018-12-08T02:33:20.755Z,99169.33
2018-12-08T02:34:26.367Z,99166.72
2018-12-08T02:35:31.985Z,99171.73
2018-12-08T02:36:37.579Z,99173.58
2018-12-08T02:37:44.091Z,99172.83
2018-12-08T02:38:49.701Z,99175.69
2018-12-08T02:39:56.218Z,99183.53
2018-12-08T02:41:01.828Z,99182.47
2018-12-08T02:42:07.433Z,99182.84
2018-12-08T02:43:13.039Z,99175.63
2018-12-08T02:44:18.318Z,99177.88
2018-12-08T02:45:23.916Z,99172.58
2018-12-08T02:46:29.754Z,99176.94
2018-12-08T02:47:35.348Z,99182.08
2018-12-08T02:48:41.041Z,99179.13
2018-12-08T02:49:46.668Z,99178.76
2018-12-08T02:50:52.332Z,99180.40
2018-12-08T02:51:57.704Z,99183.41
2018-12-08T02:53:03.296Z,99190.94
2018-12-08T02:54:08.922Z,99190.18
2018-12-08T02:55:14.569Z,99185.33
2018-12-08T02:56:20.205Z,99189.98
2018-12-08T02:57:25.854Z,99193.75
2018-12-08T02:58:31.481Z,99191.40
2018-12-08T02:59:37.128Z,99199.39
2018-12-08T03:00:42.746Z,99198.67
2018-12-08T03:01:48.350Z,99202.90
2018-12-08T03:02:53.928Z,99208.81
2018-12-08T03:03:59.502Z,99211.28
2018-12-08T03:05:04.413Z,99205.22
2018-12-08T03:06:09.684Z,99207.91
2018-12-08T03:07:15.259Z,99209.23
2018-12-08T03:08:20.854Z,99205.53
2018-12-08T03:09:26.441Z,99215.30
2018-12-08T03:10:32.080Z,99210.43
2018-12-08T03:11:37.765Z,99213.27
2018-12-08T03:12:43.359Z,99208.59
2018-12-08T03:13:49.004Z,99212.05
2018-12-08T03:14:54.620Z,99226.82
2018-12-08T03:16:00.328Z,99228.85
2018-12-08T03:17:05.220Z,99229.00
2018-12-08T03:18:10.821Z,99237.44
2018-12-08T03:19:16.396Z,99226.39
2018-12-08T03:20:22.007Z,99234.86
2018-12-08T03:21:27.632Z,99235.14
2018-12-08T03:22:33.001Z,99245.21
2018-12-08T03:23:38.606Z,99241.83
2018-12-08T03:24:44.210Z,99251.88
2018-12-08T03:25:49.829Z,99246.84
2018-12-08T03:26:55.439Z,99247.91
2018-12-08T03:28:01.080Z,99243.53
2018-12-08T03:29:06.739Z,99246.64
2018-12-08T03:30:12.347Z,99245.05
2018-12-08T03:31:17.967Z,99253.96
2018-12-08T03:32:23.586Z,99246.89
2018-12-08T03:33:29.187Z,99246.17
2018-12-08T03:34:34.816Z,99238.86
2018-12-08T03:35:40.439Z,99245.92
2018-12-08T03:36:46.050Z,99246.95
2018-12-08T03:37:51.665Z,99245.72
2018-12-08T03:38:57.239Z,99246.09
2018-12-08T03:40:02.885Z,99253.47
2018-12-08T03:41:07.914Z,99248.41
2018-12-08T03:42:13.506Z,99248.70
2018-12-08T03:43:19.116Z,99253.76
2018-12-08T03:44:25.801Z,99249.23
2018-12-08T03:45:31.410Z,99245.61
2018-12-08T03:46:37.038Z,99259.52
2018-12-08T03:47:42.639Z,99250.94
2018-12-08T03:48:48.251Z,99251.12
2018-12-08T03:49:54.772Z,99247.50
2018-12-08T03:51:00.428Z,99253.67
2018-12-08T03:52:06.113Z,99254.84
2018-12-08T03:53:11.754Z,99254.78
2018-12-08T03:54:17.484Z,99252.18
2018-12-08T03:55:23.105Z,99255.72
2018-12-08T03:56:28.765Z,99256.28
2018-12-08T03:57:34.408Z,99248.57
2018-12-08T03:58:40.014Z,99247.97
2018-12-08T03:59:45.616Z,99249.42
2018-12-08T04:00:50.880Z,99254.77
2018-12-08T04:01:56.458Z,99251.95
2018-12-08T04:03:02.111Z,99253.86
2018-12-08T04:04:07.397Z,99254.05
2018-12-08T04:05:12.990Z,99253.59
2018-12-08T04:06:18.642Z,99258.17
2018-12-08T04:07:24.262Z,99266.08
2018-12-08T04:08:29.869Z,99262.23
2018-12-08T04:09:35.470Z,99262.73
2018-12-08T04:10:41.107Z,99267.36
2018-12-08T04:11:46.758Z,99266.85
2018-12-08T04:12:52.371Z,99258.98
2018-12-08T04:13:57.585Z,99254.33
2018-12-08T04:15:03.197Z,99257.00
2018-12-08T04:16:08.595Z,99257.16
2018-12-08T04:17:14.233Z,99255.42
2018-12-08T04:18:20.418Z,99245.88
2018-12-08T04:19:26.022Z,99245.03
2018-12-08T04:20:31.698Z,99245.86
2018-12-08T04:21:37.375Z,99237.87
2018-12-08T04:22:42.963Z,99237.92
2018-12-08T04:23:48.553Z,99256.48
2018-12-08T04:24:54.185Z,99249.77
2018-12-08T04:25:59.829Z,99248.92
2018-12-08T04:27:05.578Z,99249.58
2018-12-08T04:28:11.091Z,99257.45
2018-12-08T04:29:16.680Z,99241.98
2018-12-08T04:30:22.315Z,99255.45
2018-12-08T04:31:27.941Z,99255.59
2018-12-08T04:32:33.550Z,99263.51
2018-12-08T04:33:39.166Z,99249.51
2018-12-08T04:34:44.769Z,99254.72
2018-12-08T04:35:50.388Z,99263.96
2018-12-08T04:36:56.016Z,99254.98
2018-12-08T04:38:01.646Z,99262.95
2018-12-08T04:39:06.597Z,99262.73
2018-12-08T04:40:11.866Z,99264.91
2018-12-08T04:41:17.579Z,99268.74
2018-12-08T04:42:23.194Z,99267.06
2018-12-08T04:43:28.801Z,99269.40
2018-12-08T04:44:34.584Z,99270.13
2018-12-08T04:45:40.096Z,99264.68
2018-12-08T04:46:45.738Z,99273.50
2018-12-08T04:47:51.324Z,99267.76
2018-12-08T04:48:56.988Z,99271.38
2018-12-08T04:50:02.601Z,99276.45
2018-12-08T04:51:08.235Z,99253.86
2018-12-08T04:52:13.845Z,99268.10
2018-12-08T04:53:19.451Z,99266.72
2018-12-08T04:54:25.080Z,99265.98
2018-12-08T04:55:30.681Z,99268.19
2018-12-08T04:56:36.311Z,99279.31
2018-12-08T04:57:41.953Z,99280.64
2018-12-08T04:58:47.572Z,99278.33
2018-12-08T04:59:53.235Z,99273.28
2018-12-08T05:00:58.902Z,99276.00
2018-12-08T05:02:04.264Z,99275.67
2018-12-08T05:03:09.525Z,99280.88
2018-12-08T05:04:15.114Z,99286.01
2018-12-08T05:05:20.714Z,99274.30
2018-12-08T05:06:26.411Z,99276.39
2018-12-08T05:07:32.027Z,99279.13
2018-12-08T05:08:38.162Z,99283.05
2018-12-08T05:09:45.037Z,99283.22
2018-12-08T05:10:51.168Z,99286.68
2018-12-08T05:11:56.787Z,99285.27
2018-12-08T05:13:02.544Z,99282.66
2018-12-08T05:14:08.186Z,99286.09
2018-12-08T05:15:13.458Z,99283.78
2018-12-08T05:16:19.767Z,99278.92
2018-12-08T05:17:25.984Z,99276.42
2018-12-08T05:18:31.629Z,99277.43
2018-12-08T05:19:37.347Z,99285.42
2018-12-08T05:20:43.010Z,99276.44
2018-12-08T05:21:48.726Z,99289.14
2018-12-08T05:22:55.876Z,99280.67
2018-12-08T05:24:01.767Z,99278.78
2018-12-08T05:25:06.774Z,99281.41
2018-12-08T05:26:12.912Z,99288.91
2018-12-08T05:27:18.540Z,99286.09
2018-12-08T05:28:24.364Z,99291.05
2018-12-08T05:29:29.976Z,99284.34
2018-12-08T05:30:35.599Z,99281.33
2018-12-08T05:31:41.773Z,99281.38
2018-12-08T05:32:47.440Z,99280.88
2018-12-08T05:33:53.061Z,99282.13
2018-12-08T05:34:58.708Z,99282.66
2018-12-08T05:36:04.018Z,99280.64
2018-12-08T05:37:09.658Z,99281.65
2018-12-08T05:38:15.244Z,99274.69
2018-12-08T05:39:20.877Z,99275.96
2018-12-08T05:40:26.495Z,99274.29
2018-12-08T05:41:32.108Z,99280.36
2018-12-08T05:42:37.500Z,99271.70
2018-12-08T05:43:43.114Z,99280.91
2018-12-08T05:44:48.775Z,99272.62
2018-12-08T05:45:54.411Z,99271.19
2018-12-08T05:47:00.069Z,99275.41
2018-12-08T05:48:05.693Z,99282.38
2018-12-08T05:49:11.291Z,99271.00
2018-12-08T05:50:16.892Z,99284.23
2018-12-08T05:51:22.531Z,99284.20
2018-12-08T05:52:28.149Z,99288.45
2018-12-08T05:53:33.788Z,99295.57
2018-12-08T05:54:39.419Z,99298.28
2018-12-08T05:55:45.031Z,99300.84
2018-12-08T05:56:50.658Z,99292.23
2018-12-08T05:57:56.428Z,99293.80
2018-12-08T05:59:02.033Z,99297.17
2018-12-08T06:00:06.732Z,99298.89
2018-12-08T06:01:12.310Z,99306.50
2018-12-08T06:02:17.957Z,99295.15
2018-12-08T06:03:23.531Z,99292.03
2018-12-08T06:04:29.190Z,99291.76
2018-12-08T06:05:35.395Z,99294.41
2018-12-08T06:06:41.512Z,99285.78
2018-12-08T06:07:47.159Z,99283.09
2018-12-08T06:08:52.797Z,99280.72
2018-12-08T06:09:58.409Z,99272.97
2018-12-08T06:11:04.031Z,99283.56
2018-12-08T06:12:09.668Z,99277.59
2018-12-08T06:13:15.287Z,99278.02
2018-12-08T06:14:20.921Z,99274.28
2018-12-08T06:15:26.560Z,99282.86
2018-12-08T06:16:32.161Z,99273.56
2018-12-08T06:17:38.415Z,99268.26
2018-12-08T06:18:44.052Z,99271.42
2018-12-08T06:19:49.704Z,99269.80
2018-12-08T06:20:55.331Z,99275.25
2018-12-08T06:22:01.027Z,99274.27
2018-12-08T06:23:06.612Z,99270.09
2018-12-08T06:24:12.208Z,99266.22
2018-12-08T06:25:17.157Z,99262.95
2018-12-08T06:26:22.785Z,99261.72
2018-12-08T06:27:27.769Z,99275.19
2018-12-08T06:28:33.444Z,99270.66
2018-12-08T06:29:38.840Z,99281.55
2018-12-08T06:30:44.462Z,99275.52
2018-12-08T06:31:50.092Z,99275.56
2018-12-08T06:32:55.733Z,99275.59
2018-12-08T06:34:02.503Z,99280.19
2018-12-08T06:35:12.932Z,99276.82
2018-12-08T06:36:22.895Z,99280.62
2018-12-08T06:37:32.259Z,99291.08
2018-12-08T06:38:38.401Z,99286.55
2018-12-08T06:39:43.952Z,99283.36
2018-12-08T06:40:49.609Z,99289.91
2018-12-08T06:41:55.229Z,99287.18
2018-12-08T06:43:00.854Z,99290.90
2018-12-08T06:44:06.516Z,99292.12
2018-12-08T06:45:12.124Z,99296.00
2018-12-08T06:46:17.725Z,99290.95
2018-12-08T06:47:23.327Z,99288.88
2018-12-08T06:48:28.900Z,99286.23
2018-12-08T06:49:34.520Z,99285.98
2018-12-08T06:50:40.144Z,99285.67
2018-12-08T06:51:45.748Z,99282.71
2018-12-08T06:52:51.380Z,99289.30
2018-12-08T06:53:57.020Z,99292.09
2018-12-08T06:55:02.337Z,99291.61
2018-12-08T06:56:07.924Z,99296.62
2018-12-08T06:57:13.544Z,99296.08
2018-12-08T06:58:19.215Z,99294.75
2018-12-08T06:59:24.811Z,99301.55
2018-12-08T07:00:30.439Z,99298.26
2018-12-08T07:01:36.024Z,99293.48
2018-12-08T07:02:41.310Z,99286.27
2018-12-08T07:03:46.948Z,99289.72
2018-12-08T07:04:52.564Z,99294.29
2018-12-08T07:05:58.140Z,99295.25
2018-12-08T07:07:03.736Z,99299.84
2018-12-08T07:08:09.984Z,99293.39
2018-12-08T07:09:18.272Z,99286.19
2018-12-08T07:10:25.891Z,99281.15
2018-12-08T07:11:32.464Z,99282.51
2018-12-08T07:12:39.042Z,99283.98
2018-12-08T07:13:45.686Z,99277.05
2018-12-08T07:14:52.446Z,99281.88
2018-12-08T07:15:58.565Z,99275.55
2018-12-08T07:17:04.233Z,99276.34
2018-12-08T07:18:09.903Z,99274.27
2018-12-08T07:19:16.679Z,99275.50
2018-12-08T07:20:22.335Z,99272.23
2018-12-08T07:21:27.644Z,99276.73
2018-12-08T07:22:33.267Z,99274.11
2018-12-08T07:23:38.911Z,99276.27
2018-12-08T07:24:44.543Z,99273.93
2018-12-08T07:25:50.199Z,99270.80
2018-12-08T07:26:55.796Z,99272.48
2018-12-08T07:28:01.401Z,99278.30
2018-12-08T07:29:07.034Z,99286.81
2018-12-08T07:30:12.327Z,99285.80
2018-12-08T07:31:17.931Z,99286.62
2018-12-08T07:32:23.553Z,99279.77
2018-12-08T07:33:29.189Z,99284.80
2018-12-08T07:34:34.787Z,99278.18
2018-12-08T07:35:40.397Z,99283.31
2018-12-08T07:36:46.373Z,99282.01
2018-12-08T07:37:53.091Z,99274.13
2018-12-08T07:38:59.273Z,99281.77
2018-12-08T07:40:05.423Z,99278.59
2018-12-08T07:41:12.492Z,99283.70
2018-12-08T07:42:19.600Z,99284.63
2018-12-08T07:43:27.165Z,99284.52
2018-12-08T07:44:35.438Z,99280.81
2018-12-08T07:45:41.677Z,99286.88
2018-12-08T07:46:48.821Z,99281.73
2018-12-08T07:47:55.573Z,99286.73
2018-12-08T07:49:02.491Z,99275.25
2018-12-08T07:50:09.335Z,99286.67
2018-12-08T07:51:15.466Z,99274.33
2018-12-08T07:52:21.795Z,99278.67
2018-12-08T07:53:28.403Z,99285.30
2018-12-08T07:54:34.572Z,99287.53
2018-12-08T07:55:42.954Z,99283.27
2018-12-08T07:56:54.527Z,99280.17
2018-12-08T07:58:01.554Z,99286.52
2018-12-08T07:59:08.189Z,99279.78
2018-12-08T08:00:13.403Z,99276.83
2018-12-08T08:01:21.287Z,99274.70
2018-12-08T08:02:27.611Z,99275.36
2018-12-08T08:03:33.439Z,99263.77
2018-12-08T08:04:40.463Z,99260.39
2018-12-08T08:05:48.097Z,99277.08
2018-12-08T08:06:53.735Z,99268.89
2018-12-08T08:08:00.861Z,99263.50
2018-12-08T08:09:07.752Z,99262.55
2018-12-08T08:10:14.156Z,99274.39
2018-12-08T08:11:23.858Z,99268.75
2018-12-08T08:12:32.734Z,99264.52
2018-12-08T08:13:39.023Z,99268.37
2018-12-08T08:14:46.300Z,99273.88
2018-12-08T08:15:53.495Z,99269.81
2018-12-08T08:17:00.410Z,99273.36
2018-12-08T08:18:07.027Z,99272.69
2018-12-08T08:19:13.501Z,99271.12
2018-12-08T08:20:19.493Z,99258.70
2018-12-08T08:21:26.041Z,99257.83
2018-12-08T08:22:32.238Z,99260.13
2018-12-08T08:23:38.729Z,99254.08
2018-12-08T08:24:45.388Z,99255.41
2018-12-08T08:25:51.593Z,99255.48
2018-12-08T08:26:58.455Z,99250.84
2018-12-08T08:28:05.598Z,99249.04
2018-12-08T08:29:12.652Z,99251.27
2018-12-08T08:30:19.516Z,99249.97
2018-12-08T08:31:25.924Z,99249.19
2018-12-08T08:32:31.502Z,99240.69
2018-12-08T08:33:37.159Z,99247.46
2018-12-08T08:34:42.761Z,99242.48
2018-12-08T08:35:48.397Z,99237.47
2018-12-08T08:36:54.025Z,99241.02
2018-12-08T08:37:59.634Z,99237.77
2018-12-08T08:39:04.563Z,99241.61
2018-12-08T08:40:09.469Z,99246.25
2018-12-08T08:41:14.763Z,99243.34
2018-12-08T08:42:20.366Z,99241.25
2018-12-08T08:43:27.143Z,99222.65
2018-12-08T08:44:33.442Z,99232.20
2018-12-08T08:45:39.075Z,99234.15
2018-12-08T08:46:44.685Z,99229.35
2018-12-08T08:47:50.269Z,99232.05
2018-12-08T08:48:55.931Z,99232.02
2018-12-08T08:50:01.574Z,99230.16
2018-12-08T08:51:07.718Z,99232.66
2018-12-08T08:52:13.574Z,99228.63
2018-12-08T08:53:19.183Z,99232.63
2018-12-08T08:54:24.941Z,99227.83
2018-12-08T08:55:30.649Z,99224.31
2018-12-08T08:56:35.900Z,99209.63
2018-12-08T08:57:41.495Z,99215.98
2018-12-08T08:58:47.508Z,99215.44
2018-12-08T08:59:53.375Z,99219.43
2018-12-08T09:00:58.961Z,99224.76
2018-12-08T09:02:04.580Z,99231.55
2018-12-08T09:03:10.230Z,99215.80
2018-12-08T09:04:15.868Z,99229.14
2018-12-08T09:05:21.139Z,99213.11
2018-12-08T09:06:27.725Z,99217.48
2018-12-08T09:07:34.589Z,99219.58
2018-12-08T09:08:41.390Z,99216.82
2018-12-08T09:09:48.983Z,99222.84
2018-12-08T09:10:56.384Z,99223.03
2018-12-08T09:12:03.356Z,99218.92
2018-12-08T09:13:11.632Z,99223.59
2018-12-08T09:14:18.164Z,99216.60
2018-12-08T09:15:24.950Z,99222.27
2018-12-08T09:16:32.487Z,99220.53
2018-12-08T09:17:38.599Z,99225.13
2018-12-08T09:18:44.254Z,99211.93
2018-12-08T09:19:49.872Z,99215.83
2018-12-08T09:20:55.513Z,99207.80
2018-12-08T09:22:01.641Z,99216.28
2018-12-08T09:23:07.370Z,99217.51
2018-12-08T09:24:13.104Z,99211.91
2018-12-08T09:25:18.690Z,99204.80
2018-12-08T09:26:24.347Z,99221.64
2018-12-08T09:27:31.040Z,99202.19
2018-12-08T09:28:36.676Z,99206.70
2018-12-08T09:29:41.976Z,99204.58
2018-12-08T09:30:47.638Z,99206.02
2018-12-08T09:31:53.291Z,99193.97
2018-12-08T09:32:58.942Z,99204.29
2018-12-08T09:34:04.281Z,99193.78
2018-12-08T09:35:09.160Z,99187.11
2018-12-08T09:36:14.752Z,99200.77
2018-12-08T09:37:20.372Z,99192.93
2018-12-08T09:38:26.031Z,99191.69
2018-12-08T09:39:31.661Z,99190.42
2018-12-08T09:40:37.304Z,99198.13
2018-12-08T09:41:43.563Z,99181.56
2018-12-08T09:42:49.399Z,99185.27
2018-12-08T09:43:55.053Z,99188.62
2018-12-08T09:45:00.970Z,99175.95
2018-12-08T09:46:07.330Z,99168.11
2018-12-08T09:47:12.934Z,99172.13
2018-12-08T09:48:18.857Z,99169.42
2018-12-08T09:49:24.988Z,99172.48
2018-12-08T09:50:30.577Z,99167.04
2018-12-08T09:51:35.781Z,99168.50
2018-12-08T09:52:41.800Z,99163.19
2018-12-08T09:53:47.693Z,99161.58
2018-12-08T09:54:53.337Z,99173.77
2018-12-08T09:55:58.971Z,99182.55
2018-12-08T09:57:04.535Z,99172.16
2018-12-08T09:58:09.451Z,99167.48
2018-12-08T09:59:15.799Z,99171.04
2018-12-08T10:00:22.443Z,99177.63
2018-12-08T10:01:28.081Z,99170.03
2018-12-08T10:02:33.790Z,99169.22
2018-12-08T10:03:39.759Z,99168.30
2018-12-08T10:04:45.860Z,99171.86
2018-12-08T10:05:51.527Z,99165.00
2018-12-08T10:06:57.114Z,99162.49
2018-12-08T10:08:02.800Z,99171.72
2018-12-08T10:09:07.724Z,99166.92
2018-12-08T10:10:12.976Z,99161.45
2018-12-08T10:11:18.548Z,99159.42
2018-12-08T10:12:24.164Z,99165.19
2018-12-08T10:13:29.792Z,99158.74
2018-12-08T10:14:35.473Z,99160.02
2018-12-08T10:15:41.081Z,99153.41
2018-12-08T10:16:46.669Z,99166.73
2018-12-08T10:17:52.291Z,99163.97
2018-12-08T10:18:58.182Z,99165.34
2018-12-08T10:20:03.802Z,99163.22
2018-12-08T10:21:09.091Z,99151.87
2018-12-08T10:22:14.760Z,99157.97
2018-12-08T10:23:20.365Z,99161.60
2018-12-08T10:24:25.989Z,99162.03
2018-12-08T10:25:31.581Z,99150.38
2018-12-08T10:26:37.245Z,99159.19
2018-12-08T10:27:42.871Z,99150.06
2018-12-08T10:28:48.479Z,99158.70
2018-12-08T10:29:54.104Z,99148.13
2018-12-08T10:30:59.718Z,99159.80
2018-12-08T10:32:05.059Z,99154.80
2018-12-08T10:33:10.495Z,99161.60
2018-12-08T10:34:16.109Z,99154.36
2018-12-08T10:35:21.725Z,99151.83
2018-12-08T10:36:27.305Z,99150.78
2018-12-08T10:37:32.925Z,99137.06
2018-12-08T10:38:38.500Z,99140.20
2018-12-08T10:39:44.678Z,99132.94
2018-12-08T10:40:49.796Z,99133.58
2018-12-08T10:41:55.400Z,99123.55
2018-12-08T10:43:00.990Z,99122.42
2018-12-08T10:44:06.265Z,99125.97
2018-12-08T10:45:11.509Z,99126.64
2018-12-08T10:46:17.115Z,99124.95
2018-12-08T10:47:22.792Z,99109.39
2018-12-08T10:48:28.411Z,99122.78
2018-12-08T10:49:34.037Z,99112.25
2018-12-08T10:50:39.708Z,99113.55
2018-12-08T10:51:45.314Z,99124.52
2018-12-08T10:52:50.945Z,99115.92
2018-12-08T10:53:56.569Z,99116.25
2018-12-08T10:55:02.200Z,99103.14
2018-12-08T10:56:07.836Z,99098.27
2018-12-08T10:57:13.472Z,99094.56
2018-12-08T10:58:19.057Z,99087.91
2018-12-08T10:59:24.667Z,99083.92
2018-12-08T11:00:35.564Z,99076.64
2018-12-08T11:01:46.483Z,99078.77
2018-12-08T11:02:54.511Z,99066.29
2018-12-08T11:04:00.102Z,99062.89
2018-12-08T11:05:05.033Z,99068.55
2018-12-08T11:06:10.641Z,99066.36
2018-12-08T11:07:16.241Z,99071.20
2018-12-08T11:08:21.913Z,99058.02
2018-12-08T11:09:27.569Z,99065.22
2018-12-08T11:10:33.257Z,99066.77
2018-12-08T11:11:38.519Z,99053.27
2018-12-08T11:12:43.833Z,99071.33
2018-12-08T11:13:49.439Z,99053.80
2018-12-08T11:15:00.713Z,99056.98
2018-12-08T11:16:00.835Z,99055.08
2018-12-08T11:17:06.412Z,99055.15
2018-12-08T11:18:12.025Z,99063.52
2018-12-08T11:19:17.685Z,99056.26
2018-12-08T11:20:23.296Z,99069.58
2018-12-08T11:21:28.604Z,99060.88
2018-12-08T11:22:34.274Z,99051.95
2018-12-08T11:23:39.890Z,99057.25
2018-12-08T11:24:45.484Z,99054.22
2018-12-08T11:25:51.111Z,99047.58
2018-12-08T11:26:56.769Z,99062.52
2018-12-08T11:28:02.424Z,99053.88
2018-12-08T11:29:08.045Z,99047.67
2018-12-08T11:30:13.323Z,99042.80
2018-12-08T11:31:18.940Z,99040.98
2018-12-08T11:32:24.530Z,99044.27
2018-12-08T11:33:29.430Z,99037.24
2018-12-08T11:34:35.038Z,99032.47
2018-12-08T11:35:40.644Z,99034.44
2018-12-08T11:36:49.626Z,99033.45
2018-12-08T11:37:51.912Z,99027.14
2018-12-08T11:38:57.489Z,99026.66
2018-12-08T11:40:03.391Z,99031.48
2018-12-08T11:41:09.017Z,99024.20
2018-12-08T11:42:14.643Z,99027.01
2018-12-08T11:43:20.290Z,99012.92
2018-12-08T11:44:25.636Z,99027.91
2018-12-08T11:45:31.249Z,99022.80
2018-12-08T11:46:36.856Z,99026.72
2018-12-08T11:47:42.466Z,99017.09
2018-12-08T11:48:48.069Z,99015.23
2018-12-08T11:49:53.694Z,99025.52
2018-12-08T11:50:59.304Z,99027.99
2018-12-08T11:52:05.285Z,99023.10
2018-12-08T11:53:11.181Z,99019.41
2018-12-08T11:54:16.838Z,99025.84
2018-12-08T11:55:29.982Z,99017.50
2018-12-08T11:56:28.115Z,99014.20
2018-12-08T11:57:33.721Z,99020.43
2018-12-08T11:58:38.962Z,99021.77
2018-12-08T11:59:44.585Z,99018.03
2018-12-08T12:00:50.281Z,99026.86
2018-12-08T12:01:55.881Z,99000.96
2018-12-08T12:03:01.470Z,99012.75
2018-12-08T12:04:07.110Z,99027.02
2018-12-08T12:05:12.412Z,99019.87
2018-12-08T12:06:17.695Z,99007.79
2018-12-08T12:07:23.299Z,99027.28
2018-12-08T12:08:28.904Z,99007.94
2018-12-08T12:09:34.528Z,99017.91
2018-12-08T12:10:40.153Z,99012.98
2018-12-08T12:11:45.753Z,99018.77
2018-12-08T12:12:51.362Z,99024.92
2018-12-08T12:13:56.986Z,99018.88
2018-12-08T12:15:02.277Z,98998.27
2018-12-08T12:16:08.005Z,99011.02
2018-12-08T12:17:13.613Z,99000.88
2018-12-08T12:18:19.194Z,99005.22
2018-12-08T12:19:24.810Z,99004.37
2018-12-08T12:20:30.180Z,99000.16
2018-12-08T12:21:35.831Z,98995.14
2018-12-08T12:22:41.466Z,98998.60
2018-12-08T12:23:47.077Z,98990.15
2018-12-08T12:24:52.687Z,99000.91
2018-12-08T12:25:58.312Z,98992.47
2018-12-08T12:27:03.647Z,98991.66
2018-12-08T12:28:11.068Z,98988.00
2018-12-08T12:29:14.876Z,98995.90
2018-12-08T12:30:20.505Z,98991.37
2018-12-08T12:31:25.840Z,98992.56
2018-12-08T12:32:33.524Z,98985.67
2018-12-08T12:33:39.247Z,98989.77
2018-12-08T12:34:44.876Z,98969.83
2018-12-08T12:35:50.539Z,98969.67
2018-12-08T12:36:56.158Z,98975.32
2018-12-08T12:38:01.801Z,98971.48
2018-12-08T12:39:07.425Z,98970.90
2018-12-08T12:40:12.700Z,98962.58
2018-12-08T12:41:18.373Z,98971.05
2018-12-08T12:42:23.987Z,98947.66
2018-12-08T12:43:29.604Z,98970.30
2018-12-08T12:44:35.210Z,98970.41
2018-12-08T12:45:40.810Z,98965.47
2018-12-08T12:46:46.519Z,98971.78
2018-12-08T12:47:52.120Z,98981.14
2018-12-08T12:48:57.738Z,98967.95
2018-12-08T12:50:02.997Z,98969.11
2018-12-08T12:51:08.647Z,98977.55
2018-12-08T12:52:14.305Z,98976.30